Strona główna
METAR-TAF:

METAR-TAF

Lotnisko :

Port lotniczy Kunovice

Uherské Hradiště, Czechy

Szerokość geograficzna: 49-01-46N, Długość geograficzna: 017-26-23E, wysokość: 177 m

Aktualna obserwacja pogody

Raport powstał 20 godziny i 45 minut temu, godzina 18:00 UTC
Wiatr 10 kt od północny wschód
Temperatura 10°C
Wilgotność 76%
Ciśnienie 1029 hPa
Widzialność 10 km lub więcej
Brak chmur poniżej 1500 m i brak chmur cumulonimbus

METAR: LKKU 221800Z 04010KT CAVOK 10/06 Q1029

czas: 15:45 (14:45 UTC)


TAF: brakujący

Obserwacja i prognoza pogody dla ponad 4000 lotnisk (raport METAR i TAF).

Dostępne stacje oznaczono żółtymi i czerwonymi punktami na mapie.

Najedź kursorem aby zobaczyć nazwę stacji.

Kliknij aby zobaczyć obserwacje i prognozy pogody.

Aby zmienić mapę: kliknij na zielony przycisk z czarnym krzyżykiem, aby powiększyć; na zielony przycisk z myślnikiem, aby pomniejszyć; na zielone strzałki, aby przejść do map sąsiednich.


METAR-TAF: